Terminal Aerodrome Forecast
Issued by NWS

Home | Current Version | Previous Version | Text Only | Print | Product List | Glossary On
Versions: 1 2 3 4 5 6 7 8 9 10 11 12 13 14 15
379
FTUS43 KPAH 150520
TAFCGI
TAF
KCGI 150520Z 1506/1606 20012G20KT P6SM SKC
     FM151100 28011KT P6SM VCTS BKN060CB
     FM151300 31014G22KT P6SM -SHRA BKN035
     FM151800 33012G20KT P6SM BKN150=

USA.gov is the U.S. government's official web portal to all federal, state and local government web resources and services.